createdAt,value
2022-10-20T00:02:56.193Z,1.50
2022-10-20T00:06:08.077Z,1.47
2022-10-20T00:09:10.697Z,1.60
2022-10-20T00:12:13.282Z,1.57
2022-10-20T00:15:17.430Z,1.47
2022-10-20T00:18:20.290Z,1.70
2022-10-20T00:21:24.578Z,1.67
2022-10-20T00:24:27.073Z,1.50
2022-10-20T00:27:29.627Z,1.80
2022-10-20T00:30:34.801Z,1.50
2022-10-20T00:33:37.553Z,1.60
2022-10-20T00:36:40.625Z,1.53
2022-10-20T00:39:43.114Z,1.60
2022-10-20T00:42:45.827Z,1.43
2022-10-20T00:45:55.649Z,1.80
2022-10-20T00:49:01.471Z,1.33
2022-10-20T00:52:04.190Z,1.60
2022-10-20T00:55:09.042Z,1.73
2022-10-20T00:58:11.583Z,1.40
2022-10-20T01:01:15.742Z,1.63
2022-10-20T01:04:18.835Z,1.60
2022-10-20T01:07:21.332Z,1.60
2022-10-20T01:10:27.599Z,1.57
2022-10-20T01:13:39.545Z,1.30
2022-10-20T01:16:52.660Z,1.43
2022-10-20T01:20:19.604Z,1.60
2022-10-20T01:24:01.296Z,1.30
2022-10-20T01:27:29.120Z,1.80
2022-10-20T01:30:33.060Z,1.50
2022-10-20T01:33:42.676Z,1.63
2022-10-20T01:36:51.910Z,1.77
2022-10-20T01:40:01.417Z,1.60
2022-10-20T01:43:10.132Z,1.70
2022-10-20T01:46:14.510Z,1.50
2022-10-20T01:49:17.476Z,1.57
2022-10-20T01:52:22.321Z,1.60
2022-10-20T01:55:25.410Z,1.50
2022-10-20T01:59:03.645Z,1.70
2022-10-20T02:02:30.041Z,1.70
2022-10-20T02:05:47.010Z,1.50
2022-10-20T02:08:53.484Z,1.70
2022-10-20T02:12:02.346Z,1.50
2022-10-20T02:15:07.862Z,1.50
2022-10-20T02:18:12.829Z,1.60
2022-10-20T02:21:17.330Z,1.40
2022-10-20T02:24:22.859Z,1.60
2022-10-20T02:27:30.082Z,1.77
2022-10-20T02:30:35.362Z,1.70
2022-10-20T02:33:39.126Z,1.53
2022-10-20T02:36:43.965Z,1.40
2022-10-20T02:39:46.457Z,1.47
2022-10-20T02:42:48.982Z,1.67
2022-10-20T02:45:52.789Z,1.50
2022-10-20T02:48:55.303Z,1.60
2022-10-20T02:51:57.802Z,1.53
2022-10-20T02:55:00.565Z,2.00
2022-10-20T02:58:03.063Z,1.90
2022-10-20T03:01:06.950Z,1.70
2022-10-20T03:04:09.665Z,1.80
2022-10-20T03:07:13.652Z,1.80
2022-10-20T03:10:16.258Z,1.60
2022-10-20T03:13:18.739Z,1.57
2022-10-20T03:16:22.622Z,1.70
2022-10-20T03:19:25.134Z,1.83
2022-10-20T03:22:27.628Z,1.40
2022-10-20T03:25:32.388Z,1.73
2022-10-20T03:28:35.302Z,1.90
2022-10-20T03:31:39.175Z,1.60
2022-10-20T03:34:41.690Z,1.97
2022-10-20T03:37:44.190Z,1.80
2022-10-20T03:40:46.832Z,1.80
2022-10-20T03:43:49.309Z,2.00
2022-10-20T03:46:53.114Z,1.80
2022-10-20T03:49:55.665Z,1.70
2022-10-20T03:52:58.227Z,1.90
2022-10-20T03:56:00.712Z,1.93
2022-10-20T04:02:08.126Z,1.83
2022-10-20T04:05:13.882Z,2.03
2022-10-20T04:08:16.393Z,2.10
2022-10-20T04:11:18.910Z,2.00
2022-10-20T04:14:21.382Z,3.00
2022-10-20T04:17:25.396Z,2.03
2022-10-20T04:20:27.911Z,2.20
2022-10-20T04:23:30.510Z,2.13
2022-10-20T04:26:33.006Z,2.20
2022-10-20T04:29:35.892Z,2.20
2022-10-20T04:32:39.839Z,2.40
2022-10-20T04:35:42.472Z,2.17
2022-10-20T04:38:44.989Z,2.30
2022-10-20T04:41:47.513Z,2.10
2022-10-20T04:44:50.098Z,2.80
2022-10-20T04:47:55.377Z,2.50
2022-10-20T04:51:02.224Z,2.37
2022-10-20T04:57:12.312Z,2.37
2022-10-20T05:00:15.859Z,2.40
2022-10-20T05:03:19.937Z,2.60
2022-10-20T05:06:24.813Z,2.10
2022-10-20T05:09:27.295Z,2.30
2022-10-20T05:12:29.819Z,2.70
2022-10-20T05:15:32.317Z,2.20
2022-10-20T05:18:36.857Z,2.37
2022-10-20T05:21:39.775Z,2.20
2022-10-20T05:24:42.264Z,2.30
2022-10-20T05:27:44.963Z,2.60
2022-10-20T05:30:47.462Z,2.90
2022-10-20T05:33:53.790Z,2.40
2022-10-20T05:36:56.275Z,2.30
2022-10-20T05:39:59.797Z,2.43
2022-10-20T05:43:02.251Z,2.80
2022-10-20T05:46:05.332Z,2.60
2022-10-20T05:49:13.975Z,2.80
2022-10-20T05:52:16.474Z,3.10
2022-10-20T05:55:19.329Z,2.67
2022-10-20T05:58:23.075Z,2.73
2022-10-20T06:01:27.481Z,3.20
2022-10-20T06:04:31.789Z,2.70
2022-10-20T06:07:34.319Z,2.50
2022-10-20T06:10:36.814Z,2.47
2022-10-20T06:13:39.519Z,2.90
2022-10-20T06:16:42.024Z,2.40
2022-10-20T06:19:45.845Z,3.07
2022-10-20T06:22:48.312Z,2.40
2022-10-20T06:25:50.780Z,2.63
2022-10-20T06:28:59.813Z,2.47
2022-10-20T06:32:05.913Z,2.60
2022-10-20T06:35:09.949Z,2.50
2022-10-20T06:38:12.425Z,2.43
2022-10-20T06:41:16.764Z,2.30
2022-10-20T06:44:20.000Z,2.53
2022-10-20T06:47:22.492Z,2.47
2022-10-20T06:50:26.520Z,2.50
2022-10-20T06:53:30.337Z,2.57
2022-10-20T06:56:34.837Z,2.47
2022-10-20T06:59:38.661Z,2.23
2022-10-20T07:02:41.133Z,2.70
2022-10-20T07:05:44.971Z,2.47
2022-10-20T07:08:48.227Z,2.60
2022-10-20T07:11:53.957Z,2.57
2022-10-20T07:14:56.478Z,2.40
2022-10-20T07:17:58.964Z,2.40
2022-10-20T07:21:05.317Z,2.40
2022-10-20T07:24:09.399Z,2.20
2022-10-20T07:27:11.866Z,2.70
2022-10-20T07:30:14.500Z,2.63
2022-10-20T07:33:17.028Z,2.80
2022-10-20T07:36:23.715Z,2.57
2022-10-20T07:39:26.693Z,2.80
2022-10-20T07:42:30.166Z,2.33
2022-10-20T07:45:33.267Z,2.47
2022-10-20T07:48:36.045Z,1.87
2022-10-20T07:51:39.915Z,2.20
2022-10-20T07:54:42.424Z,2.17
2022-10-20T07:57:44.916Z,2.73
2022-10-20T08:00:47.399Z,2.03
2022-10-20T08:03:49.924Z,2.20
2022-10-20T08:06:53.772Z,2.53
2022-10-20T08:09:56.358Z,2.03
2022-10-20T08:12:58.967Z,2.13
2022-10-20T08:16:04.458Z,2.53
2022-10-20T08:19:13.584Z,2.10
2022-10-20T08:22:19.092Z,2.10
2022-10-20T08:25:21.665Z,2.50
2022-10-20T08:28:26.262Z,2.33
2022-10-20T08:31:29.615Z,1.90
2022-10-20T08:34:32.419Z,1.97
2022-10-20T08:37:37.249Z,1.97
2022-10-20T08:40:43.358Z,1.80
2022-10-20T08:43:48.003Z,1.60
2022-10-20T08:46:50.654Z,1.77
2022-10-20T08:49:53.458Z,2.20
2022-10-20T08:53:00.564Z,2.07
2022-10-20T08:56:03.056Z,2.00
2022-10-20T08:59:22.817Z,2.10
2022-10-20T09:02:25.340Z,2.37
2022-10-20T09:05:32.288Z,1.80
2022-10-20T09:08:39.340Z,2.43
2022-10-20T09:11:44.241Z,2.63
2022-10-20T09:14:46.755Z,2.43
2022-10-20T09:17:52.554Z,2.07
2022-10-20T09:20:58.604Z,2.53
2022-10-20T09:24:05.418Z,2.10
2022-10-20T09:27:21.580Z,1.63
2022-10-20T09:30:26.382Z,2.10
2022-10-20T09:33:31.230Z,2.03
2022-10-20T09:36:36.335Z,1.80
2022-10-20T09:39:54.191Z,1.87
2022-10-20T09:43:02.249Z,2.20
2022-10-20T09:46:07.633Z,2.30
2022-10-20T09:49:24.695Z,1.90
2022-10-20T09:52:34.117Z,3.07
2022-10-20T09:55:46.071Z,2.17
2022-10-20T09:58:48.653Z,1.90
2022-10-20T10:01:56.158Z,2.00
2022-10-20T10:05:16.078Z,2.10
2022-10-20T10:08:19.278Z,2.00
2022-10-20T10:11:27.713Z,1.80
2022-10-20T10:14:33.140Z,1.80
2022-10-20T10:17:39.125Z,2.00
2022-10-20T10:20:42.285Z,1.97
2022-10-20T10:23:56.492Z,1.80
2022-10-20T10:27:00.601Z,1.87
2022-10-20T10:30:28.328Z,2.23
2022-10-20T10:33:33.014Z,1.80
2022-10-20T10:36:37.419Z,1.87
2022-10-20T10:39:39.902Z,1.80
2022-10-20T10:43:00.100Z,2.00
2022-10-20T10:46:07.142Z,2.05
2022-10-20T10:49:29.895Z,1.88
2022-10-20T10:52:42.817Z,1.85
2022-10-20T10:55:54.876Z,1.85
2022-10-20T10:59:05.459Z,2.15
2022-10-20T11:02:30.314Z,2.10
2022-10-20T11:05:55.231Z,1.80
2022-10-20T11:09:12.969Z,1.90
2022-10-20T11:12:46.827Z,2.10
2022-10-20T11:16:01.276Z,1.88
2022-10-20T11:19:20.732Z,1.85
2022-10-20T11:22:36.645Z,2.03
2022-10-20T11:25:45.708Z,2.47
2022-10-20T11:28:50.475Z,2.20
2022-10-20T11:32:02.266Z,2.30
2022-10-20T11:35:15.206Z,2.00
2022-10-20T11:38:22.356Z,2.78
2022-10-20T11:41:30.464Z,2.95
2022-10-20T11:44:38.201Z,2.35
2022-10-20T11:47:46.351Z,2.73
2022-10-20T11:51:11.738Z,2.33
2022-10-20T11:54:40.258Z,2.33
2022-10-20T11:57:59.000Z,2.50
2022-10-20T12:01:26.470Z,2.78
2022-10-20T12:04:41.816Z,2.88
2022-10-20T12:08:24.718Z,2.33
2022-10-20T12:11:30.827Z,3.00
2022-10-20T12:14:37.691Z,2.30
2022-10-20T12:17:43.370Z,2.60
2022-10-20T12:20:59.667Z,2.63
2022-10-20T12:24:05.786Z,2.50
2022-10-20T12:27:28.145Z,2.80
2022-10-20T12:30:45.189Z,2.50
2022-10-20T12:34:03.688Z,2.70
2022-10-20T12:37:17.775Z,2.20
2022-10-20T12:40:26.020Z,2.60
2022-10-20T12:43:35.676Z,2.60
2022-10-20T12:46:43.703Z,3.08
2022-10-20T12:49:55.251Z,2.38
2022-10-20T12:53:11.821Z,2.85
2022-10-20T12:56:21.126Z,2.70
2022-10-20T12:59:40.125Z,2.30
2022-10-20T13:02:50.430Z,2.70
2022-10-20T13:05:52.920Z,2.40
2022-10-20T13:09:22.860Z,2.08
2022-10-20T13:12:28.940Z,2.40
2022-10-20T13:15:35.937Z,2.67
2022-10-20T13:18:45.532Z,2.38
2022-10-20T13:21:49.768Z,1.95
2022-10-20T13:24:56.026Z,2.50
2022-10-20T13:28:08.351Z,2.70
2022-10-20T13:31:20.663Z,2.88
2022-10-20T13:34:27.966Z,2.60
2022-10-20T13:37:45.530Z,2.42
2022-10-20T13:41:02.585Z,3.28
2022-10-20T13:44:16.448Z,2.95
2022-10-20T13:47:47.178Z,2.97
2022-10-20T13:50:57.156Z,3.08
2022-10-20T13:54:03.917Z,3.30
2022-10-20T13:57:08.887Z,3.17
2022-10-20T14:00:20.425Z,3.53
2022-10-20T14:03:22.894Z,3.53
2022-10-20T14:06:37.661Z,3.30
2022-10-20T14:09:45.246Z,3.60
2022-10-20T14:12:51.897Z,3.40
2022-10-20T14:15:57.006Z,3.40
2022-10-20T14:19:05.020Z,3.53
2022-10-20T14:22:18.922Z,3.23
2022-10-20T14:25:22.367Z,4.17
2022-10-20T14:28:29.222Z,3.63
2022-10-20T14:31:31.909Z,4.23
2022-10-20T14:34:36.687Z,3.63
2022-10-20T14:37:41.340Z,3.70
2022-10-20T14:40:51.217Z,3.60
2022-10-20T14:44:02.095Z,3.30
2022-10-20T14:47:14.769Z,3.57
2022-10-20T14:50:23.471Z,3.43
2022-10-20T14:53:33.734Z,3.70
2022-10-20T14:56:44.487Z,3.33
2022-10-20T14:59:55.894Z,3.50
2022-10-20T15:03:02.930Z,3.80
2022-10-20T15:06:05.808Z,3.70
2022-10-20T15:09:18.890Z,3.53
2022-10-20T15:12:25.730Z,3.63
2022-10-20T15:15:37.636Z,3.70
2022-10-20T15:18:40.219Z,3.80
2022-10-20T15:21:42.707Z,4.00
2022-10-20T15:24:48.853Z,3.77
2022-10-20T15:27:51.885Z,3.60
2022-10-20T15:30:55.762Z,3.40
2022-10-20T15:33:59.525Z,3.27
2022-10-20T15:37:02.025Z,3.30
2022-10-20T15:40:05.063Z,3.80
2022-10-20T15:43:07.628Z,3.00
2022-10-20T15:46:12.992Z,3.90
2022-10-20T15:49:15.937Z,3.17
2022-10-20T15:52:18.504Z,3.33
2022-10-20T15:55:23.316Z,2.87
2022-10-20T15:58:25.802Z,3.53
2022-10-20T16:01:29.740Z,3.13
2022-10-20T16:04:32.354Z,3.27
2022-10-20T16:07:35.176Z,3.27
2022-10-20T16:10:38.828Z,3.77
2022-10-20T16:13:41.377Z,3.33
2022-10-20T16:16:45.748Z,3.20
2022-10-20T16:19:48.250Z,3.30
2022-10-20T16:22:50.840Z,3.50
2022-10-20T16:25:53.383Z,3.63
2022-10-20T16:28:56.059Z,3.20
2022-10-20T16:32:00.206Z,3.50
2022-10-20T16:35:02.844Z,3.90
2022-10-20T16:38:05.317Z,3.63
2022-10-20T16:41:10.336Z,3.60
2022-10-20T16:44:13.065Z,3.43
2022-10-20T16:47:16.913Z,3.57
2022-10-20T16:50:19.400Z,4.20
2022-10-20T16:53:23.646Z,3.85
2022-10-20T16:56:26.901Z,3.67
2022-10-20T16:59:29.431Z,3.93
2022-10-20T17:02:35.500Z,3.73
2022-10-20T17:05:37.980Z,4.53
2022-10-20T17:08:41.165Z,3.90
2022-10-20T17:11:43.734Z,4.07
2022-10-20T17:14:46.221Z,4.10
2022-10-20T17:17:50.034Z,4.03
2022-10-20T17:20:55.814Z,4.43
2022-10-20T17:23:58.473Z,3.97
2022-10-20T17:27:00.961Z,3.80
2022-10-20T17:30:03.466Z,3.90
2022-10-20T17:33:07.279Z,5.13
2022-10-20T17:36:11.531Z,4.60
2022-10-20T17:39:17.267Z,5.20
2022-10-20T17:42:19.811Z,5.27
2022-10-20T17:45:22.294Z,4.20
2022-10-20T17:48:26.140Z,4.00
2022-10-20T17:51:33.381Z,4.10
2022-10-20T17:54:37.567Z,3.97
2022-10-20T17:57:40.106Z,3.40
2022-10-20T18:00:56.115Z,3.87
2022-10-20T18:04:03.184Z,3.70
2022-10-20T18:07:05.714Z,3.90
2022-10-20T18:10:08.938Z,3.70
2022-10-20T18:13:11.544Z,3.70
2022-10-20T18:16:15.814Z,3.73
2022-10-20T18:19:20.380Z,3.70
2022-10-20T18:22:22.859Z,3.53
2022-10-20T18:25:25.439Z,3.67
2022-10-20T18:28:27.943Z,3.53
2022-10-20T18:31:32.417Z,3.30
2022-10-20T18:34:38.474Z,3.83
2022-10-20T18:37:41.634Z,4.03
2022-10-20T18:40:44.140Z,3.63
2022-10-20T18:43:47.491Z,3.80
2022-10-20T18:46:51.313Z,3.93
2022-10-20T18:49:55.130Z,3.87
2022-10-20T18:52:57.610Z,3.63
2022-10-20T18:56:01.627Z,4.13
2022-10-20T18:59:06.168Z,3.70
2022-10-20T19:02:10.962Z,3.43
2022-10-20T19:05:14.774Z,4.00
2022-10-20T19:08:17.480Z,3.40
2022-10-20T19:11:21.498Z,3.33
2022-10-20T19:14:24.096Z,3.47
2022-10-20T19:17:26.561Z,3.60
2022-10-20T19:20:32.071Z,3.97
2022-10-20T19:23:36.587Z,3.83
2022-10-20T19:26:40.566Z,4.40
2022-10-20T19:29:43.062Z,3.63
2022-10-20T19:32:45.747Z,3.77
2022-10-20T19:35:51.040Z,4.13
2022-10-20T19:38:53.701Z,4.10
2022-10-20T19:41:57.458Z,3.73
2022-10-20T19:44:59.921Z,3.90
2022-10-20T19:48:02.448Z,3.50
2022-10-20T19:51:06.555Z,3.80
2022-10-20T19:54:09.514Z,4.13
2022-10-20T19:57:11.990Z,3.77
2022-10-20T20:00:14.889Z,4.43
2022-10-20T20:03:17.919Z,4.13
2022-10-20T20:06:23.014Z,4.43
2022-10-20T20:09:29.277Z,4.70
2022-10-20T20:12:31.882Z,4.80
2022-10-20T20:15:34.384Z,4.00
2022-10-20T20:18:37.136Z,4.50
2022-10-20T20:21:40.968Z,4.87
2022-10-20T20:24:44.094Z,4.70
2022-10-20T20:27:46.683Z,4.73
2022-10-20T20:30:59.830Z,4.70
2022-10-20T20:34:02.356Z,4.60
2022-10-20T20:37:06.151Z,4.83
2022-10-20T20:40:09.487Z,5.67
2022-10-20T20:43:12.061Z,5.33
2022-10-20T20:46:16.704Z,5.00
2022-10-20T20:49:19.321Z,5.50
2022-10-20T20:52:23.166Z,5.30
2022-10-20T20:55:25.648Z,5.40
2022-10-20T20:58:29.390Z,5.27
2022-10-20T21:01:32.557Z,5.60
2022-10-20T21:04:35.188Z,5.20
2022-10-20T21:07:39.534Z,5.10
2022-10-20T21:10:42.262Z,5.53
2022-10-20T21:13:46.555Z,5.73
2022-10-20T21:16:49.125Z,5.50
2022-10-20T21:19:51.591Z,5.63
2022-10-20T21:22:55.453Z,5.50
2022-10-20T21:25:57.939Z,5.03
2022-10-20T21:29:00.497Z,5.13
2022-10-20T21:32:02.972Z,5.20
2022-10-20T21:35:05.850Z,5.07
2022-10-20T21:38:09.661Z,5.83
2022-10-20T21:41:14.050Z,30.23
2022-10-20T21:44:16.677Z,18.00
2022-10-20T21:47:19.177Z,12.53
2022-10-20T21:50:21.685Z,12.13
2022-10-20T21:53:25.508Z,5.47
2022-10-20T21:56:28.689Z,5.10
2022-10-20T21:59:32.219Z,5.30
2022-10-20T22:02:34.683Z,5.50
2022-10-20T22:05:37.474Z,5.47
2022-10-20T22:08:43.191Z,5.07
2022-10-20T22:11:49.813Z,5.30
2022-10-20T22:14:52.320Z,6.40
2022-10-20T22:17:54.786Z,5.67
2022-10-20T22:20:57.459Z,6.13
2022-10-20T22:24:01.402Z,6.43
2022-10-20T22:27:15.361Z,6.17
2022-10-20T22:30:27.710Z,6.40
2022-10-20T22:33:30.205Z,5.90
2022-10-20T22:36:32.714Z,6.00
2022-10-20T22:39:36.546Z,5.70
2022-10-20T22:42:39.240Z,5.63
2022-10-20T22:45:41.922Z,5.40
2022-10-20T22:48:46.092Z,5.60
2022-10-20T22:51:48.675Z,5.47
2022-10-20T22:54:52.517Z,5.80
2022-10-20T22:57:55.034Z,5.73
2022-10-20T23:00:57.595Z,5.77
2022-10-20T23:04:00.140Z,5.57
2022-10-20T23:10:11.696Z,5.80
2022-10-20T23:13:14.186Z,6.00
2022-10-20T23:16:16.724Z,5.43
2022-10-20T23:19:19.479Z,5.50
2022-10-20T23:22:21.974Z,6.03
2022-10-20T23:25:25.813Z,5.87
2022-10-20T23:28:28.299Z,5.70
2022-10-20T23:31:30.782Z,5.30
2022-10-20T23:37:38.150Z,5.70
2022-10-20T23:40:42.220Z,6.00
2022-10-20T23:43:44.815Z,5.53
2022-10-20T23:46:47.359Z,5.83
2022-10-20T23:49:49.841Z,5.57
2022-10-20T23:52:52.780Z,5.47
2022-10-20T23:55:56.610Z,5.87
2022-10-20T23:58:59.106Z,5.73
